Terminal Aerodrome Forecast
Issued by NWS Cleveland, OH

Home | Current Version | Previous Version | Text Only | Print | Product List | Glossary Off
Versions: 1 2 3 4 5 6 7 8 9 10 11 12 13 14 15

492
FTUS41 KCLE 181145
TAFCAK
TAF
KCAK 181145Z 1812/1912 26006KT P6SM BKN025 BKN035
     FM181700 21008KT P6SM SCT035
     FM182000 17008KT P6SM BKN250
     FM190900 17010KT P6SM OVC100=

USA.gov is the U.S. government's official web portal to all federal, state and local government web resources and services.